Barry, Texas
Current Conditions -  °F | °C
As of 3:19 PM on Friday 19 Dec 2014 (Local Time) from KCRS Reporting Station
Haze Haze  
Wind Chill: 44°   Ceiling: 500
Heat Index: 49°   Visibility: 4mi
Dew Point: 46°   Wind: 13mph
Humidity: 90%   Direction: 10°N
Pressure: 30.14"   Gusts: NA
Location:  32.1°N, 96.64°W
Report Text: KCRS 192119Z AUTO 01011KT 4SM BR OVC005 09/08 A3014 RMK AO2 T00940078
Loading
Personal Weather Stations






























Interactive Weather Map New forecast layout! Learn more

10-Day Weather Forecast

Advertisements
Track Severe Weather on mobile